createdAt,value
2019-01-17T00:00:45.290Z,75.70
2019-01-17T00:03:34.386Z,75.60
2019-01-17T00:06:32.436Z,75.60
2019-01-17T00:09:33.583Z,75.50
2019-01-17T00:12:25.510Z,75.50
2019-01-17T00:15:20.453Z,75.50
2019-01-17T00:18:27.694Z,75.60
2019-01-17T00:21:10.650Z,75.50
2019-01-17T00:23:55.745Z,75.40
2019-01-17T00:26:42.494Z,75.40
2019-01-17T00:29:27.447Z,75.50
2019-01-17T00:32:10.196Z,75.50
2019-01-17T00:34:59.336Z,75.70
2019-01-17T00:37:47.167Z,75.70
2019-01-17T00:40:36.471Z,75.70
2019-01-17T00:43:19.200Z,75.70
2019-01-17T00:45:59.557Z,75.70
2019-01-17T00:48:54.467Z,75.60
2019-01-17T00:51:55.411Z,75.60
2019-01-17T00:55:02.467Z,75.60
2019-01-17T00:57:42.876Z,75.50
2019-01-17T01:00:32.413Z,75.50
2019-01-17T01:03:13.474Z,75.40
2019-01-17T01:06:01.133Z,75.40
2019-01-17T01:08:56.916Z,75.30
2019-01-17T01:11:55.407Z,75.20
2019-01-17T01:14:42.887Z,75.40
2019-01-17T01:17:32.350Z,75.50
2019-01-17T01:20:24.175Z,75.40
2019-01-17T01:23:22.122Z,75.30
2019-01-17T01:26:23.130Z,75.30
2019-01-17T01:29:10.855Z,75.50
2019-01-17T01:31:59.913Z,75.40
2019-01-17T01:35:07.252Z,75.10
2019-01-17T01:38:11.302Z,74.80
2019-01-17T01:40:55.126Z,74.60
2019-01-17T01:43:47.041Z,74.40
2019-01-17T01:46:41.385Z,74.30
2019-01-17T01:49:22.516Z,74.20
2019-01-17T01:52:17.701Z,74.30
2019-01-17T01:54:47.767Z,74.10
2019-01-17T01:57:17.931Z,74.00
2019-01-17T01:59:48.061Z,74.10
2019-01-17T02:02:18.267Z,74.10
2019-01-17T02:04:48.456Z,74.10
2019-01-17T02:07:18.625Z,74.00
2019-01-17T02:09:48.731Z,73.90
2019-01-17T02:12:18.769Z,73.90
2019-01-17T02:14:48.878Z,73.80
2019-01-17T02:17:19.222Z,73.70
2019-01-17T02:19:49.333Z,73.50
2019-01-17T02:22:19.781Z,73.60
2019-01-17T02:24:49.957Z,73.40
2019-01-17T02:27:20.107Z,73.50
2019-01-17T02:29:50.226Z,73.50
2019-01-17T02:32:20.275Z,73.40
2019-01-17T02:34:50.367Z,73.30
2019-01-17T02:37:20.555Z,73.20
2019-01-17T02:39:50.705Z,73.30
2019-01-17T02:42:20.817Z,73.40
2019-01-17T02:44:50.968Z,73.40
2019-01-17T02:47:21.426Z,73.40
2019-01-17T02:49:51.478Z,73.20
2019-01-17T02:52:21.732Z,72.90
2019-01-17T02:54:51.919Z,73.00
2019-01-17T02:57:21.993Z,72.90
2019-01-17T02:59:52.164Z,72.60
2019-01-17T03:02:22.360Z,72.70
2019-01-17T03:04:52.429Z,72.60
2019-01-17T03:07:22.625Z,72.60
2019-01-17T03:09:52.841Z,72.30
2019-01-17T03:12:22.905Z,72.50
2019-01-17T03:14:52.948Z,72.30
2019-01-17T03:17:23.041Z,72.40
2019-01-17T03:19:53.146Z,72.50
2019-01-17T03:22:23.342Z,72.60
2019-01-17T03:24:53.649Z,72.70
2019-01-17T03:27:23.714Z,72.70
2019-01-17T03:29:53.818Z,72.70
2019-01-17T03:32:24.478Z,72.80
2019-01-17T03:34:54.596Z,73.20
2019-01-17T03:37:24.704Z,73.50
2019-01-17T03:39:54.976Z,73.80
2019-01-17T03:42:25.034Z,73.70
2019-01-17T03:44:55.098Z,73.60
2019-01-17T03:47:25.265Z,73.30
2019-01-17T03:49:56.379Z,73.20
2019-01-17T03:52:26.635Z,73.10
2019-01-17T03:54:56.642Z,73.10
2019-01-17T03:57:26.861Z,72.90
2019-01-17T03:59:57.109Z,73.00
2019-01-17T04:02:27.191Z,72.90
2019-01-17T04:04:57.337Z,72.90
2019-01-17T04:07:27.413Z,72.90
2019-01-17T04:09:57.478Z,72.90
2019-01-17T04:12:27.732Z,72.90
2019-01-17T04:14:58.157Z,72.90
2019-01-17T04:17:28.801Z,72.90
2019-01-17T04:19:59.085Z,72.90
2019-01-17T04:22:29.180Z,73.00
2019-01-17T04:24:59.372Z,72.90
2019-01-17T04:27:29.417Z,72.90
2019-01-17T04:29:59.709Z,72.90
2019-01-17T04:32:29.854Z,72.90
2019-01-17T04:35:00.165Z,72.90
2019-01-17T04:37:30.183Z,72.70
2019-01-17T04:40:00.359Z,72.80
2019-01-17T04:42:30.534Z,72.90
2019-01-17T04:45:00.624Z,72.90
2019-01-17T04:47:30.795Z,72.90
2019-01-17T04:50:00.906Z,72.90
2019-01-17T04:52:31.064Z,72.90
2019-01-17T04:55:05.524Z,73.00
2019-01-17T04:57:33.270Z,73.00
2019-01-17T05:00:03.411Z,72.90
2019-01-17T05:02:33.716Z,73.10
2019-01-17T05:05:04.468Z,73.00
2019-01-17T05:07:34.630Z,73.00
2019-01-17T05:10:06.073Z,72.90
2019-01-17T05:12:36.176Z,72.90
2019-01-17T05:15:06.683Z,73.00
2019-01-17T05:17:36.699Z,73.10
2019-01-17T05:20:09.143Z,73.10
2019-01-17T05:22:39.390Z,73.20
2019-01-17T05:25:12.670Z,73.20
2019-01-17T05:27:42.525Z,73.30
2019-01-17T05:30:17.715Z,73.20
2019-01-17T05:32:48.760Z,73.10
2019-01-17T05:35:18.854Z,73.00
2019-01-17T05:37:48.912Z,73.10
2019-01-17T05:40:20.140Z,73.00
2019-01-17T05:42:50.528Z,73.10
2019-01-17T05:45:20.709Z,73.10
2019-01-17T05:47:50.756Z,73.10
2019-01-17T05:50:20.943Z,73.10
2019-01-17T05:52:51.009Z,73.10
2019-01-17T05:55:21.513Z,73.10
2019-01-17T05:57:51.546Z,73.10
2019-01-17T06:00:22.233Z,73.10
2019-01-17T06:02:52.443Z,73.10
2019-01-17T06:05:22.659Z,73.20
2019-01-17T06:07:52.988Z,73.30
2019-01-17T06:10:23.105Z,73.30
2019-01-17T06:12:54.017Z,73.30
2019-01-17T06:15:24.661Z,73.20
2019-01-17T06:17:54.823Z,73.10
2019-01-17T06:20:24.985Z,73.10
2019-01-17T06:22:55.098Z,73.20
2019-01-17T06:25:28.147Z,73.40
2019-01-17T06:27:57.189Z,73.30
2019-01-17T06:30:27.369Z,73.30
2019-01-17T06:32:58.796Z,73.30
2019-01-17T06:35:29.002Z,73.30
2019-01-17T06:37:59.080Z,73.30
2019-01-17T06:40:31.327Z,73.30
2019-01-17T06:43:01.466Z,73.30
2019-01-17T06:45:31.607Z,73.20
2019-01-17T06:48:01.804Z,73.20
2019-01-17T06:50:31.967Z,73.30
2019-01-17T06:53:02.385Z,73.30
2019-01-17T06:55:34.508Z,73.30
2019-01-17T06:58:04.773Z,73.30
2019-01-17T07:00:35.488Z,73.30
2019-01-17T07:03:05.735Z,73.30
2019-01-17T07:05:35.978Z,73.40
2019-01-17T07:08:06.450Z,73.20
2019-01-17T07:10:36.569Z,73.20
2019-01-17T07:13:06.863Z,73.10
2019-01-17T07:15:37.395Z,73.20
2019-01-17T07:18:07.742Z,73.20
2019-01-17T07:20:37.831Z,73.30
2019-01-17T07:23:07.899Z,73.30
2019-01-17T07:25:41.152Z,73.50
2019-01-17T07:28:10.033Z,73.50
2019-01-17T07:30:40.280Z,73.50
2019-01-17T07:33:10.363Z,73.50
2019-01-17T07:35:40.557Z,73.50
2019-01-17T07:38:10.672Z,73.50
2019-01-17T07:40:40.781Z,73.40
2019-01-17T07:43:10.837Z,74.30
2019-01-17T07:45:40.949Z,73.60
2019-01-17T07:48:11.007Z,73.60
2019-01-17T07:50:41.057Z,73.50
2019-01-17T07:53:11.270Z,73.60
2019-01-17T07:55:47.464Z,73.50
2019-01-17T07:58:13.375Z,73.60
2019-01-17T08:00:43.533Z,73.70
2019-01-17T08:03:13.589Z,73.70
2019-01-17T08:05:43.774Z,73.60
2019-01-17T08:08:13.825Z,73.60
2019-01-17T08:10:43.933Z,73.60
2019-01-17T08:13:14.175Z,73.60
2019-01-17T08:15:44.401Z,73.50
2019-01-17T08:18:18.683Z,73.50
2019-01-17T08:20:46.302Z,73.50
2019-01-17T08:23:16.540Z,73.60
2019-01-17T08:25:46.606Z,73.50
2019-01-17T08:28:16.652Z,73.60
2019-01-17T08:30:46.741Z,73.40
2019-01-17T08:33:16.790Z,73.30
2019-01-17T08:35:46.958Z,73.40
2019-01-17T08:38:17.036Z,73.40
2019-01-17T08:40:47.253Z,73.50
2019-01-17T08:43:17.289Z,73.50
2019-01-17T08:45:47.830Z,73.50
2019-01-17T08:48:17.904Z,73.50
2019-01-17T08:50:48.164Z,73.50
2019-01-17T08:53:18.210Z,73.60
2019-01-17T08:55:48.278Z,73.50
2019-01-17T08:58:19.307Z,73.40
2019-01-17T09:00:49.339Z,73.40
2019-01-17T09:03:19.376Z,73.50
2019-01-17T09:05:49.729Z,73.70
2019-01-17T09:08:19.801Z,73.80
2019-01-17T09:10:49.810Z,73.80
2019-01-17T09:13:19.969Z,73.80
2019-01-17T09:15:50.165Z,73.70
2019-01-17T09:18:21.281Z,73.50
2019-01-17T09:20:51.357Z,73.60
2019-01-17T09:23:21.378Z,73.70
2019-01-17T09:25:51.523Z,73.80
2019-01-17T09:28:21.831Z,73.80
2019-01-17T09:30:51.993Z,73.70
2019-01-17T09:33:22.069Z,73.90
2019-01-17T09:35:52.172Z,73.90
2019-01-17T09:38:22.198Z,74.70
2019-01-17T09:40:52.268Z,73.90
2019-01-17T09:43:22.527Z,73.80
2019-01-17T09:45:52.675Z,73.80
2019-01-17T09:48:22.978Z,73.90
2019-01-17T09:50:53.065Z,73.80
2019-01-17T09:53:23.081Z,73.70
2019-01-17T09:55:53.260Z,73.70
2019-01-17T09:58:23.386Z,73.70
2019-01-17T10:00:53.464Z,73.60
2019-01-17T10:03:23.531Z,73.50
2019-01-17T10:05:54.593Z,73.50
2019-01-17T10:08:24.745Z,73.60
2019-01-17T10:10:54.999Z,73.70
2019-01-17T10:13:31.814Z,73.70
2019-01-17T10:16:24.203Z,73.70
2019-01-17T10:19:56.337Z,73.80
2019-01-17T10:22:56.445Z,73.80
2019-01-17T10:25:39.757Z,73.90
2019-01-17T10:28:23.981Z,73.90
2019-01-17T10:31:47.162Z,73.90
2019-01-17T10:34:59.515Z,74.00
2019-01-17T10:38:11.188Z,73.90
2019-01-17T10:41:25.338Z,74.00
2019-01-17T10:44:34.488Z,74.00
2019-01-17T10:47:31.515Z,74.00
2019-01-17T10:50:26.435Z,74.10
2019-01-17T10:53:32.587Z,74.20
2019-01-17T10:56:59.351Z,74.30
2019-01-17T10:59:52.728Z,74.20
2019-01-17T11:02:48.095Z,74.10
2019-01-17T11:05:35.401Z,74.10
2019-01-17T11:08:36.946Z,74.10
2019-01-17T11:11:43.570Z,74.20
2019-01-17T11:14:53.203Z,74.10
2019-01-17T11:17:48.447Z,74.10
2019-01-17T11:20:51.417Z,74.10
2019-01-17T11:23:47.639Z,74.10
2019-01-17T11:27:09.319Z,74.10
2019-01-17T11:29:56.008Z,74.80
2019-01-17T11:32:33.907Z,74.10
2019-01-17T11:35:33.629Z,74.10
2019-01-17T11:38:33.659Z,74.00
2019-01-17T11:41:14.222Z,74.00
2019-01-17T11:44:30.539Z,74.20
2019-01-17T11:47:43.212Z,74.30
2019-01-17T11:50:52.736Z,74.40
2019-01-17T11:53:35.615Z,74.40
2019-01-17T11:56:48.445Z,74.40
2019-01-17T11:59:54.139Z,74.40
2019-01-17T12:02:59.602Z,74.40
2019-01-17T12:05:29.795Z,74.50
2019-01-17T12:07:59.905Z,74.50
2019-01-17T12:10:29.968Z,74.60
2019-01-17T12:13:00.474Z,74.60
2019-01-17T12:15:30.565Z,74.60
2019-01-17T12:18:00.693Z,74.70
2019-01-17T12:20:30.788Z,74.60
2019-01-17T12:23:00.939Z,74.80
2019-01-17T12:25:31.114Z,74.90
2019-01-17T12:28:01.151Z,75.00
2019-01-17T12:30:31.387Z,74.90
2019-01-17T12:33:01.503Z,74.60
2019-01-17T12:35:31.615Z,74.60
2019-01-17T12:38:01.745Z,74.70
2019-01-17T12:40:31.861Z,74.60
2019-01-17T12:43:01.934Z,74.50
2019-01-17T12:45:32.082Z,74.40
2019-01-17T12:48:02.148Z,74.60
2019-01-17T12:50:32.791Z,74.50
2019-01-17T12:53:03.137Z,74.60
2019-01-17T12:55:34.070Z,74.60
2019-01-17T12:58:04.190Z,74.50
2019-01-17T13:00:34.254Z,74.50
2019-01-17T13:03:07.300Z,74.70
2019-01-17T13:05:37.491Z,74.80
2019-01-17T13:08:21.894Z,74.70
2019-01-17T13:10:52.331Z,74.90
2019-01-17T13:13:43.598Z,74.90
2019-01-17T13:16:13.635Z,74.80
2019-01-17T13:18:43.976Z,74.70
2019-01-17T13:21:14.033Z,74.80
2019-01-17T13:23:45.076Z,74.60
2019-01-17T13:26:15.504Z,74.60
2019-01-17T13:28:45.863Z,74.40
2019-01-17T13:31:15.901Z,74.10
2019-01-17T13:33:46.055Z,75.40
2019-01-17T13:36:16.510Z,74.60
2019-01-17T13:38:47.441Z,74.50
2019-01-17T13:41:17.680Z,74.70
2019-01-17T13:43:47.732Z,74.70
2019-01-17T13:46:17.939Z,74.70
2019-01-17T13:48:47.963Z,74.60
2019-01-17T13:51:18.028Z,74.50
2019-01-17T13:53:48.341Z,74.10
2019-01-17T13:56:23.444Z,74.00
2019-01-17T13:58:52.936Z,73.90
2019-01-17T14:01:23.080Z,73.90
2019-01-17T14:03:53.168Z,74.10
2019-01-17T14:06:23.255Z,73.90
2019-01-17T14:08:53.417Z,74.10
2019-01-17T14:11:23.607Z,74.00
2019-01-17T14:13:53.798Z,73.80
2019-01-17T14:16:23.873Z,73.80
2019-01-17T14:18:54.019Z,73.80
2019-01-17T14:21:25.585Z,73.90
2019-01-17T14:23:56.008Z,73.90
2019-01-17T14:26:26.537Z,73.90
2019-01-17T14:28:56.700Z,73.90
2019-01-17T14:31:26.859Z,73.90
2019-01-17T14:33:57.039Z,73.60
2019-01-17T14:36:27.209Z,73.80
2019-01-17T14:38:57.348Z,73.70
2019-01-17T14:41:27.585Z,73.70
2019-01-17T14:43:57.730Z,73.70
2019-01-17T14:46:27.810Z,73.50
2019-01-17T14:48:57.994Z,73.70
2019-01-17T14:51:28.127Z,73.70
2019-01-17T14:53:58.276Z,73.80
2019-01-17T14:56:28.687Z,73.90
2019-01-17T14:58:58.723Z,74.00
2019-01-17T15:01:28.881Z,74.10
2019-01-17T15:03:58.901Z,74.10
2019-01-17T15:06:29.036Z,74.10
2019-01-17T15:08:59.204Z,74.10
2019-01-17T15:11:29.218Z,74.10
2019-01-17T15:13:59.251Z,74.20
2019-01-17T15:16:29.345Z,74.20
2019-01-17T15:18:59.531Z,74.10
2019-01-17T15:21:29.587Z,74.20
2019-01-17T15:23:59.681Z,74.10
2019-01-17T15:26:29.855Z,74.10
2019-01-17T15:28:59.907Z,74.10
2019-01-17T15:31:30.031Z,74.10
2019-01-17T15:34:00.029Z,74.20
2019-01-17T15:36:30.647Z,74.20
2019-01-17T15:39:00.806Z,74.10
2019-01-17T15:41:32.638Z,74.10
2019-01-17T15:44:02.970Z,74.00
2019-01-17T15:46:33.040Z,74.10
2019-01-17T15:49:03.278Z,74.10
2019-01-17T15:51:33.449Z,74.50
2019-01-17T15:54:03.487Z,74.50
2019-01-17T15:56:34.793Z,74.70
2019-01-17T15:59:04.950Z,75.30
2019-01-17T16:01:35.029Z,75.60
2019-01-17T16:04:05.066Z,76.10
2019-01-17T16:06:35.230Z,76.30
2019-01-17T16:09:07.423Z,76.70
2019-01-17T16:11:37.613Z,76.70
2019-01-17T16:14:07.741Z,76.90
2019-01-17T16:16:38.212Z,77.00
2019-01-17T16:19:08.688Z,77.20
2019-01-17T16:21:38.809Z,77.30
2019-01-17T16:24:09.027Z,77.40
2019-01-17T16:26:39.213Z,77.50
2019-01-17T16:29:09.309Z,77.40
2019-01-17T16:31:39.435Z,77.20
2019-01-17T16:34:09.490Z,77.30
2019-01-17T16:36:39.669Z,77.30
2019-01-17T16:39:10.239Z,77.50
2019-01-17T16:41:40.947Z,77.60
2019-01-17T16:44:11.095Z,77.70
2019-01-17T16:46:41.535Z,77.60
2019-01-17T16:49:11.773Z,77.60
2019-01-17T16:51:42.492Z,77.50
2019-01-17T16:54:12.660Z,77.50
2019-01-17T16:56:42.728Z,77.30
2019-01-17T16:59:12.849Z,77.10
2019-01-17T17:01:42.941Z,76.90
2019-01-17T17:04:13.146Z,77.30
2019-01-17T17:06:43.267Z,77.70
2019-01-17T17:09:13.448Z,77.70
2019-01-17T17:11:43.891Z,78.60
2019-01-17T17:14:13.979Z,78.00
2019-01-17T17:16:44.106Z,78.20
2019-01-17T17:19:14.177Z,78.40
2019-01-17T17:21:44.181Z,78.70
2019-01-17T17:24:14.257Z,78.70
2019-01-17T17:26:44.434Z,78.70
2019-01-17T17:29:14.459Z,78.90
2019-01-17T17:31:45.249Z,78.90
2019-01-17T17:34:15.347Z,78.70
2019-01-17T17:36:45.593Z,78.60
2019-01-17T17:39:15.624Z,78.60
2019-01-17T17:41:45.932Z,78.60
2019-01-17T17:44:16.275Z,78.70
2019-01-17T17:46:46.683Z,78.60
2019-01-17T17:49:16.789Z,78.90
2019-01-17T17:51:46.950Z,78.90
2019-01-17T17:54:17.283Z,78.90
2019-01-17T17:56:47.383Z,78.80
2019-01-17T17:59:18.475Z,78.90
2019-01-17T18:01:54.874Z,79.00
2019-01-17T18:04:25.056Z,78.90
2019-01-17T18:06:55.223Z,78.60
2019-01-17T18:09:25.592Z,78.30
2019-01-17T18:11:55.667Z,78.00
2019-01-17T18:14:26.106Z,77.70
2019-01-17T18:16:56.147Z,77.70
2019-01-17T18:19:26.272Z,77.60
2019-01-17T18:21:56.379Z,77.60
2019-01-17T18:24:26.538Z,77.50
2019-01-17T18:26:57.305Z,77.50
2019-01-17T18:29:27.539Z,77.60
2019-01-17T18:31:57.665Z,77.60
2019-01-17T18:34:27.874Z,77.80
2019-01-17T18:36:57.980Z,78.20
2019-01-17T18:39:28.098Z,78.50
2019-01-17T18:41:58.157Z,78.60
2019-01-17T18:44:28.353Z,78.90
2019-01-17T18:46:58.420Z,79.10
2019-01-17T18:49:28.575Z,79.30
2019-01-17T18:51:58.739Z,79.30
2019-01-17T18:54:29.162Z,79.30
2019-01-17T18:56:59.335Z,79.30
2019-01-17T18:59:29.601Z,79.30
2019-01-17T19:02:00.773Z,79.40
2019-01-17T19:04:30.987Z,79.40
2019-01-17T19:07:01.231Z,79.30
2019-01-17T19:09:31.441Z,79.10
2019-01-17T19:12:01.558Z,79.00
2019-01-17T19:14:31.589Z,79.20
2019-01-17T19:17:01.748Z,79.30
2019-01-17T19:19:32.031Z,79.20
2019-01-17T19:22:02.129Z,79.20
2019-01-17T19:24:32.269Z,79.20
2019-01-17T19:27:02.712Z,79.40
2019-01-17T19:29:32.773Z,79.70
2019-01-17T19:32:02.915Z,79.70
2019-01-17T19:34:33.241Z,79.90
2019-01-17T19:37:03.329Z,79.90
2019-01-17T19:39:33.494Z,79.70
2019-01-17T19:42:03.772Z,79.90
2019-01-17T19:44:33.890Z,80.00
2019-01-17T19:47:04.151Z,80.20
2019-01-17T19:49:34.198Z,80.30
2019-01-17T19:52:04.923Z,80.30
2019-01-17T19:54:35.106Z,80.40
2019-01-17T19:57:05.274Z,80.40
2019-01-17T19:59:35.706Z,80.00
2019-01-17T20:02:05.856Z,80.00
2019-01-17T20:04:41.684Z,80.10
2019-01-17T20:07:07.892Z,80.00
2019-01-17T20:09:38.030Z,80.00
2019-01-17T20:12:08.215Z,80.20
2019-01-17T20:14:38.393Z,80.40
2019-01-17T20:17:08.656Z,80.70
2019-01-17T20:19:38.780Z,80.80
2019-01-17T20:22:09.024Z,81.00
2019-01-17T20:24:39.204Z,81.40
2019-01-17T20:27:09.380Z,81.90
2019-01-17T20:29:41.584Z,82.30
2019-01-17T20:32:11.744Z,82.50
2019-01-17T20:34:42.016Z,82.30
2019-01-17T20:37:12.202Z,82.20
2019-01-17T20:39:42.355Z,82.20
2019-01-17T20:42:12.555Z,82.20
2019-01-17T20:44:42.731Z,82.20
2019-01-17T20:47:12.972Z,82.30
2019-01-17T20:49:43.290Z,82.20
2019-01-17T20:52:13.677Z,82.00
2019-01-17T20:54:43.849Z,81.70
2019-01-17T20:57:14.865Z,81.50
2019-01-17T20:59:45.002Z,81.30
2019-01-17T21:02:17.903Z,80.90
2019-01-17T21:04:48.162Z,81.00
2019-01-17T21:07:18.189Z,81.00
2019-01-17T21:09:48.361Z,81.10
2019-01-17T21:12:18.489Z,81.20
2019-01-17T21:14:48.734Z,81.10
2019-01-17T21:17:18.834Z,81.00
2019-01-17T21:19:48.982Z,81.00
2019-01-17T21:22:19.142Z,81.20
2019-01-17T21:24:49.284Z,81.30
2019-01-17T21:27:19.367Z,81.40
2019-01-17T21:29:49.419Z,81.30
2019-01-17T21:32:19.460Z,81.40
2019-01-17T21:34:49.760Z,81.40
2019-01-17T21:37:19.831Z,81.40
2019-01-17T21:39:49.871Z,81.50
2019-01-17T21:42:20.975Z,81.70
2019-01-17T21:44:51.129Z,81.80
2019-01-17T21:47:21.299Z,81.90
2019-01-17T21:49:51.505Z,82.00
2019-01-17T21:52:21.672Z,82.10
2019-01-17T21:54:51.702Z,82.10
2019-01-17T21:57:21.906Z,82.30
2019-01-17T21:59:52.097Z,82.40
2019-01-17T22:02:22.251Z,82.50
2019-01-17T22:04:52.400Z,82.80
2019-01-17T22:07:22.475Z,82.90
2019-01-17T22:09:52.675Z,82.80
2019-01-17T22:12:22.855Z,82.80
2019-01-17T22:14:53.080Z,82.90
2019-01-17T22:17:23.271Z,82.90
2019-01-17T22:19:53.348Z,82.90
2019-01-17T22:22:23.826Z,82.80
2019-01-17T22:24:54.089Z,82.70
2019-01-17T22:27:24.178Z,82.60
2019-01-17T22:29:54.360Z,82.50
2019-01-17T22:32:24.465Z,82.60
2019-01-17T22:34:54.583Z,82.60
2019-01-17T22:37:24.777Z,82.50
2019-01-17T22:39:54.863Z,82.30
2019-01-17T22:42:24.963Z,82.30
2019-01-17T22:44:55.117Z,82.50
2019-01-17T22:47:25.206Z,82.50
2019-01-17T22:49:55.337Z,82.50
2019-01-17T22:52:25.418Z,82.40
2019-01-17T22:54:56.151Z,82.50
2019-01-17T22:57:26.251Z,82.50
2019-01-17T22:59:56.415Z,82.40
2019-01-17T23:02:26.615Z,82.30
2019-01-17T23:04:56.830Z,82.00
2019-01-17T23:07:27.849Z,82.10
2019-01-17T23:10:01.186Z,82.10
2019-01-17T23:12:31.439Z,82.20
2019-01-17T23:15:01.518Z,82.50
2019-01-17T23:17:31.791Z,82.50
2019-01-17T23:20:01.829Z,82.60
2019-01-17T23:22:32.047Z,82.50
2019-01-17T23:25:03.174Z,82.40
2019-01-17T23:27:33.460Z,82.50
2019-01-17T23:30:05.175Z,82.60
2019-01-17T23:32:35.374Z,82.70
2019-01-17T23:35:05.612Z,82.70
2019-01-17T23:37:36.804Z,82.60
2019-01-17T23:40:07.165Z,82.50
2019-01-17T23:42:37.269Z,82.30
2019-01-17T23:45:07.602Z,82.30
2019-01-17T23:47:37.724Z,82.30
2019-01-17T23:50:07.991Z,82.50
2019-01-17T23:52:39.011Z,82.50
2019-01-17T23:55:09.249Z,82.50
2019-01-17T23:57:39.339Z,82.40
